x

8419317 - Wells, Me (welm1) Weather Station

9:54 - Sun 30th Apr 2017 All times are EDT. -4 hours from GMT.

  • Wind
    8mph, 13mph gusts
  • Sea Temp 46°f
  • Air Temp 47°f
  • Sea Pressure 1026.2mb
  • 8419317 - Wells, Me
  • 8419317 - Wells, Me

More Historic Weather Station data

Upgrade to MSW Pro to gain access to the past 30 days of data for over 8000 Wavebouys and Weather Stations around the globe.

Join Pro

Comparision Forecast

View Surf forecast
   
dim. 04/30 9:54 8 13 mph 1026.2mb 46f 47f
9:48 10 11 mph 1026.1mb 45f 47f
9:42 8 11 mph 1026.3mb 45f 47f
9:36 10 14 mph 1026mb 45f 47f
9:30 7 9 mph 1026.4mb 45f 47f
9:24 2 6 mph 1026.2mb 45f 48f
9:18  -  2 mph 1026.2mb 45f 48f
9:12 2 8 mph 1026.4mb 45f 47f
9:06  -  9 mph 1026.2mb 45f 47f
9:00 3 8 mph 1026mb 45f 47f
8:48 8 9 mph 1026.3mb 45f 46f
8:42 2 7 mph 1026.4mb 45f 47f
8:36 2 11 mph 1026.4mb 45f 46f
8:30 7 11 mph 1026.2mb 45f 46f
8:24 7 10 mph 1026mb 45f 46f
8:18 7 11 mph 1025.9mb 45f 46f
8:12 7 9 mph 1025.9mb 45f 45f
8:06 8 11 mph 1026mb 45f 45f
8:00 9 10 mph 1025.7mb 45f 45f
7:54 8 11 mph 1025.8mb 45f 45f
7:48 9 14 mph 1025.9mb 45f 44f
7:42 10 14 mph 1025.6mb 45f 44f
7:36 7 10 mph 1025.6mb 45f 45f
7:30 9 13 mph 1025.6mb 45f 44f
7:24 10 14 mph 1025.5mb 45f 44f
7:18 13 18 mph 1025.4mb 45f 44f
7:12 10 13 mph 1025.3mb 45f 44f
7:06 10 17 mph 1025mb 45f 44f
7:00 14 16 mph 1024.6mb 45f 44f
6:54 10 14 mph 1024.7mb 45f 44f
6:48 8 13 mph 1024.6mb 45f 44f
6:42 7 11 mph 1024.6mb 45f 44f
6:36 8 10 mph 1024.7mb 45f 44f
6:30 9 11 mph 1024.7mb 45f 44f
6:24 9 14 mph 1024.5mb 45f 43f
6:18 9 15 mph 1024.2mb 45f 43f
6:12 8 11 mph 1024.1mb 45f 43f
6:06 10 13 mph 1023.9mb 44f 43f
6:00 8 10 mph 1023.9mb 44f 43f
5:54 6 8 mph 1023.8mb 44f 43f
5:48 6 8 mph 1023.9mb 44f 43f
5:42 7 10 mph 1023.7mb 44f 43f
5:36 7 9 mph 1023.5mb 44f 43f
5:30 7 9 mph 1023.3mb 44f 44f
5:24 8 10 mph 1023.4mb 44f 44f
5:18 6 9 mph 1023.2mb 44f 44f
5:12 7 9 mph 1023.3mb 44f 44f
5:06 8 13 mph 1022.9mb 44f 44f
5:00 11 14 mph 1023mb 44f 44f
4:54 7 10 mph 1023.3mb 44f 45f
4:48 8 13 mph 1023.1mb 44f 45f
4:42 14 16 mph 1022.8mb 44f 45f
4:36 9 11 mph 1022.8mb 44f 45f
4:30 8 13 mph 1022.8mb 44f 46f
4:24 11 15 mph 1022.6mb 44f 46f
4:18 16 22 mph 1022.6mb 44f 46f
4:12 14 20 mph 1022.5mb 44f 46f
4:06 15 20 mph 1022.2mb 44f 47f
4:00 14 18 mph 1022mb 44f 48f
3:54 11 16 mph 1022.1mb 44f 48f
3:48 13 15 mph 1021.9mb 44f 48f
3:42 9 13 mph 1022.1mb 44f 48f
3:36 11 14 mph 1022mb 44f 50f
3:30 10 16 mph 1021.9mb 44f 50f
3:24 14 17 mph 1021.7mb 44f 50f
3:18 13 18 mph 1021.4mb 44f 50f
3:12 15 18 mph 1021.3mb 44f 50f
3:06 11 14 mph 1021.3mb 44f 50f
3:00 11 13 mph 1021.3mb 44f 50f
2:54 10 13 mph 1021.2mb 44f 50f
2:48 11 13 mph 1021.1mb 44f -
2:42 13 15 mph 1021.1mb 44f -
2:36 10 15 mph 1021.2mb 44f -
2:30 13 15 mph 1020.8mb 44f 51f
2:24 11 15 mph 1020.6mb 44f 51f
2:18 13 15 mph 1020.3mb 44f 51f
2:12 13 15 mph 1020.3mb 44f 51f
2:06 13 15 mph 1020.3mb 44f 52f
2:00 14 17 mph 1020mb 44f 52f
1:54 15 21 mph 1019.6mb 44f 52f
1:48 15 18 mph 1019.3mb 44f 53f
1:42 15 20 mph 1019.3mb 44f 53f
1:36 16 20 mph 1019.4mb 44f 53f
1:30 15 22 mph 1019.1mb 44f 53f
1:24 17 22 mph 1018.8mb 44f 54f
1:18 16 21 mph 1018.7mb 44f 55f
1:12 18 25 mph 1018.7mb 44f 55f
1:06 20 25 mph 1018.6mb 44f 56f
1:00 14 22 mph 1018.3mb 44f 58f
12:54 13 18 mph 1017.9mb 44f 60f
12:48 13 21 mph 1017.8mb 44f 60f
12:42 10 15 mph 1017.6mb 44f 60f
12:36 9 13 mph 1017.4mb 44f 61f
12:30 7 14 mph 1017.3mb 44f 60f
12:24 8 13 mph 1017.3mb 44f 61f
12:18 8 16 mph 1017.1mb 44f 61f
12:12 8 16 mph 1016.9mb 44f 62f
12:06 10 15 mph 1016.9mb 44f 62f
12:00 10 16 mph 1016.5mb 44f 62f
sam. 04/29 11:54 13 18 mph 1016.2mb 44f 63f
11:48 10 20 mph 1016mb 44f 63f
11:42 13 16 mph 1016.1mb 44f 64f
11:36 10 15 mph 1016mb 44f 64f
11:30 8 11 mph 1015.7mb 44f 64f
11:24 6 13 mph 1015.6mb 44f 65f
11:18 3 7 mph 1015.4mb 44f 65f
11:12 7 8 mph 1015.4mb 44f 65f
11:06 6 8 mph 1015.2mb 44f 65f
11:00 7 10 mph 1015.1mb 45f 65f
10:54 8 10 mph 1014.7mb 46f 66f
10:48 9 11 mph 1014.5mb 46f 66f
10:42 10 13 mph 1014.4mb 47f 66f
10:36 9 13 mph 1014.2mb 48f 67f
10:30 7 10 mph 1014.1mb 49f 67f
10:24 8 13 mph 1014mb 50f 68f
10:18 9 14 mph 1014mb 52f 68f
10:12 9 13 mph 1013.9mb 53f 68f
10:06 8 13 mph 1013.8mb 55f 68f
10:00 8 11 mph 1013.7mb 55f 69f
9:54 7 11 mph 1013.6mb 55f 69f
9:48 9 14 mph 1013.6mb 55f 69f
9:42 6 9 mph 1013.5mb 55f 69f
9:36 7 9 mph 1013.3mb 55f 69f
9:30 6 9 mph 1013.1mb 55f 69f
9:24 7 9 mph 1013.1mb 54f 70f
9:18 8 10 mph 1012.8mb 54f 70f
9:12 6 11 mph 1012.7mb 54f 70f
9:06 7 9 mph 1012.4mb 54f 70f
9:00 8 13 mph 1012.3mb 53f 71f
8:48 6 8 mph 1011.9mb 53f 71f
8:42 7 9 mph 1011.7mb 53f 71f
8:36 7 11 mph 1011.6mb 53f 71f
8:30 7 9 mph 1011.5mb 52f 71f
8:24 8 11 mph 1011.4mb 52f 72f
8:18 7 14 mph 1011.3mb 52f 72f
8:12 11 16 mph 1011.1mb 52f 72f
8:06 13 18 mph 1010.9mb 51f 72f
8:00 10 18 mph 1010.8mb 51f 72f
7:54 11 20 mph 1010.6mb 51f 73f
7:48 8 16 mph 1010.6mb 52f 73f
7:42 11 20 mph 1010.3mb 52f 73f
7:36 13 22 mph 1010.2mb 52f 73f
7:30 15 23 mph 1010.3mb 52f 73f
7:24 13 20 mph 1010.3mb 52f 73f
7:18 10 21 mph 1010.4mb 51f 74f
7:12 15 22 mph 1010.4mb 51f 74f
7:06 13 18 mph 1010.3mb 51f 74f
7:00 14 22 mph 1010.4mb 51f 74f
6:48 15 20 mph 1010.5mb 50f 75f
6:42 15 26 mph 1010.4mb 50f 75f
6:36 17 25 mph 1010.3mb 50f 75f
6:30 15 24 mph 1010.2mb 49f 75f
6:24 14 26 mph 1010.2mb 49f 75f
6:18 20 29 mph 1010.2mb 49f 76f
6:12 16 28 mph 1010.1mb 48f 76f
6:06 18 26 mph 1010.1mb 48f 76f
6:00 15 36 mph 1009.9mb 48f 76f
5:48 15 25 mph 1009.7mb 48f 77f
5:42 15 24 mph 1009.7mb 47f 76f
5:36 16 26 mph 1009.7mb 47f 77f
5:30 15 26 mph 1009.6mb 47f 77f
5:24 18 30 mph 1009.3mb 47f 77f
5:18 13 20 mph 1009.5mb 47f 78f
5:12 16 22 mph 1009.3mb 48f 78f
5:06 15 25 mph 1009.1mb 48f 78f
5:00 11 20 mph 1009mb 49f 78f
4:54 13 20 mph 1009mb 49f 78f
4:48 13 20 mph 1008.9mb 49f 78f
4:42 13 24 mph 1008.8mb 49f 78f
4:36 14 21 mph 1008.9mb 49f 78f
4:30 11 20 mph 1009mb 48f 78f
4:24 13 31 mph 1009mb 48f 78f
4:18 17 24 mph 1008.9mb 48f 78f
4:12 11 22 mph 1008.8mb 48f 78f
4:06 11 20 mph 1008.9mb 47f 78f
4:00 11 20 mph 1008.8mb 47f 79f
3:54 11 24 mph 1008.8mb 47f 79f
3:48 14 21 mph 1008.7mb 47f 79f
3:42 10 16 mph 1008.6mb 47f 79f
3:36 10 18 mph 1008.7mb 47f 79f
3:30 10 22 mph 1008.7mb 47f 79f
3:24 13 21 mph 1008.6mb 46f 78f
3:18 13 17 mph 1008.8mb 46f 78f
3:12 10 17 mph 1008.8mb 46f 79f
3:06 10 20 mph 1008.9mb 46f 78f
3:00 13 18 mph 1009mb 46f 78f
2:54 8 16 mph 1009.1mb 46f 79f
2:48 11 22 mph 1009.1mb 46f 78f
2:42 11 16 mph 1009.2mb 46f 78f
2:36 9 20 mph 1009.2mb 46f 79f
2:30 10 17 mph 1009.1mb 46f 78f
2:24 8 11 mph 1009.1mb 46f 78f
2:18 7 14 mph 1009.2mb 46f 78f
2:12 10 16 mph 1009.3mb 46f 77f
2:06 10 16 mph 1009.3mb 46f 77f
2:00 9 16 mph 1009.6mb 46f -
1:54 9 16 mph 1009.6mb 46f -
1:48 13 22 mph 1009.5mb 46f -
1:42 14 20 mph 1009.5mb 46f -
1:36 13 21 mph 1009.5mb 47f -
1:30 11 21 mph 1009.5mb 47f -
1:24 15 23 mph 1009.4mb 47f -
1:18 11 22 mph 1009.3mb 47f -
1:12 10 22 mph 1009.3mb 47f -
1:06 9 15 mph 1009.3mb 47f -
1:00 11 17 mph 1009.2mb 46f -
12:54 11 20 mph 1009.2mb 46f -
12:48 14 21 mph 1009.3mb 46f -
12:42 7 15 mph 1009.4mb 46f -
12:36 10 22 mph 1009.6mb 47f -
12:30 10 17 mph 1010mb 47f -
12:24 7 13 mph 1010.1mb 47f -
12:18 3 7 mph 1010.3mb 47f 66f
12:12 3 9 mph 1010.5mb 47f 61f
12:06 10 13 mph 1010.5mb 47f 59f
12:00 13 20 mph 1010.6mb 47f 58f
11:54 13 17 mph 1010.6mb 47f 57f
11:48 13 16 mph 1010.8mb 47f 58f
11:42 11 14 mph 1010.8mb 47f 59f
11:36 8 14 mph 1010.9mb 47f 58f
11:30 10 14 mph 1011mb 46f 59f
11:24 13 15 mph 1011.4mb 46f 58f
11:18 8 10 mph 1011.7mb 46f 62f
11:12 6 8 mph 1011.9mb 47f 60f
11:06 5 8 mph 1012mb 47f 60f
11:00 6 10 mph 1012.1mb 47f 60f
10:54 7 9 mph 1012.3mb 47f 61f
10:48 5 7 mph 1012.6mb 47f 62f
10:42 6 7 mph 1012.7mb 48f 61f
10:36 6 7 mph 1012.7mb 48f 62f
10:30 3 5 mph 1012.7mb 49f 62f
10:24 3 7 mph 1012.7mb 49f 60f
10:18 3 5 mph 1012.7mb 49f 60f
10:12 3 6 mph 1012.6mb 49f 60f
10:06 3 5 mph 1012.7mb 49f 60f
10:00 3 5 mph 1012.8mb 49f 60f
9:54 2 5 mph 1012.8mb 49f 60f
9:48 2 5 mph 1012.8mb 49f 60f
9:42 3 5 mph 1012.8mb 49f 59f
9:36 3 6 mph 1012.8mb 49f 61f
9:30 5 6 mph 1012.7mb 49f 60f
9:24 3 5 mph 1012.9mb 49f 61f
9:18 3 6 mph 1013.1mb 49f 59f
9:12 5 6 mph 1013mb 49f 58f
9:06 2 3 mph 1013.3mb 49f 58f
9:00 3 5 mph 1013.3mb 49f 59f
8:54 3 5 mph 1013.2mb 49f 59f
8:48 2 3 mph 1013.3mb 49f 58f
8:42 1
mph
1013.4mb 48f 58f
8:36 1 3 mph 1013.4mb 48f 57f
8:30  -  1 mph 1013.7mb 48f 57f
8:24  -  2 mph 1013.8mb 48f 56f
8:18  -  1 mph 1013.8mb 48f 56f
8:12  -  1 mph 1013.8mb 48f 56f
8:06  -  1 mph 1013.8mb 48f 56f
8:00  -  2 mph 1013.7mb 48f 56f
7:54 2 3 mph 1013.7mb 48f 56f
7:48 2 5 mph 1013.7mb 48f 56f
7:42 5 8 mph 1013.8mb 48f 55f
7:36 7
mph
1013.8mb 48f 56f
7:30 3 5 mph 1013.7mb 48f 58f
7:24 3
mph
1013.9mb 48f 58f
7:18 3
mph
1014mb 48f 56f
7:12 2
mph
1014.2mb 48f 56f
7:06 1 2 mph 1014.2mb 48f 56f
7:00 1
mph
1014.2mb 48f 56f
6:54  -  1 mph 1014.1mb 48f 57f
6:48  -  2 mph 1013.9mb 48f 57f
6:42 2
mph
1013.9mb 48f 57f
6:36 2
mph
1013.7mb 48f 57f
6:30 1 3 mph 1013.7mb 48f 57f
6:24 3
mph
1013.8mb 48f 57f
6:18 3
mph
1014mb 48f 56f
6:12 1 2 mph 1014mb 48f 56f
6:06  -  1 mph 1013.8mb 48f 56f
6:00  -  2 mph 1014mb 48f 54f
5:54 2 3 mph 1014.2mb 48f 55f
5:48 2
mph
1014.1mb 47f 54f
5:42 2 3 mph 1014mb 47f 56f
5:36  -  1 mph 1014.1mb 47f 54f
5:30  -  3 mph 1014.3mb 47f 54f
5:24 3 6 mph 1014.5mb 47f 55f
5:18 6
mph
1014.5mb 47f 54f
5:12 5
mph
1014.4mb 47f 54f
5:06 3 5 mph 1014.2mb 47f 54f
5:00 2 3 mph 1014.3mb 47f 54f
4:54 1 2 mph 1014.2mb 47f 55f
4:48 2 3 mph 1014.1mb 47f 54f
4:42 2
mph
1014.3mb 47f 54f
4:36  -  1 mph 1014.2mb 47f 55f
4:30  -  1 mph 1014.2mb 47f 55f
4:24 1
mph
1014mb 47f 57f
4:18  -  2 mph 1014mb 47f 59f
4:12 1
mph
1014.1mb 47f 60f
4:06  -  mph 1014.1mb 47f 59f
4:00  -  mph 1014.1mb 47f 58f
3:54  -  2 mph 1014.2mb 46f 59f
3:48 1 2 mph 1014.3mb 46f 58f
3:42 2 3 mph 1014.4mb 46f 58f
3:36 2 3 mph 1014.4mb 46f 57f
3:30 2 3 mph 1014.4mb 46f 57f
3:24 3 5 mph 1014.5mb 46f 58f
3:18 3 5 mph 1014.4mb 46f 59f
3:12 2 3 mph 1014.4mb 46f 59f
3:06 2
mph
1014.2mb 46f 58f
3:00 1 2 mph 1014.4mb 46f 57f
2:54  -  1 mph 1014.6mb 46f 56f
2:48 1 2 mph 1014.7mb 46f 56f
2:42 1 2 mph 1014.8mb 46f 56f
2:36  -  1 mph 1014.8mb 46f 55f
2:30 1 6 mph 1014.9mb 46f 60f
2:24 6
mph
1015mb 46f 62f
2:18 5 6 mph 1015.1mb 46f 63f
2:12 5 7 mph 1015.2mb 46f 62f
2:06 6 7 mph 1015.3mb 46f 63f
2:00 5 7 mph 1015.4mb 46f 62f
1:54 5 7 mph 1015.5mb 46f 62f
1:48 5 7 mph 1015.5mb 46f -
1:42 6 7 mph 1015.4mb 46f -
1:36 6 8 mph 1015.5mb 46f -
1:30 6 8 mph 1015.5mb 46f 62f
1:24 5 6 mph 1015.5mb 46f 62f
1:18 5 6 mph 1015.5mb 46f 62f
1:12 5 6 mph 1015.4mb 46f 62f
1:06 5
mph
1015.5mb 46f 62f
1:00 5 6 mph 1015.5mb 46f 62f
12:54 5 7 mph 1015.6mb 46f 63f
12:48 6 7 mph 1015.6mb 46f 63f
12:42 6 8 mph 1015.4mb 46f 64f
12:36 6 8 mph 1015.3mb 46f 64f
12:30 7 9 mph 1015.2mb 46f 64f
12:24 7 8 mph 1015.2mb 46f 64f
12:18 6 8 mph 1015mb 46f 63f
12:12 6 7 mph 1014.8mb 46f 62f
12:06 6 7 mph 1014.7mb 46f 62f
12:00 5 7 mph 1014.6mb 46f 63f
ven. 04/28 11:54 6 7 mph 1014.6mb 46f 63f
11:48 6 7 mph 1014.7mb 46f 62f
11:42 6
mph
1014.7mb 46f 62f
11:36 6 7 mph 1014.7mb 46f 63f
11:30 6 7 mph 1014.7mb 46f 64f
11:24 6 7 mph 1014.6mb 46f 63f
11:18 6 7 mph 1014.6mb 46f 64f
11:12 6 7 mph 1014.5mb 46f 64f
11:06 6
mph
1014.6mb 46f 63f
11:00 5 6 mph 1014.6mb 47f 62f
10:54 5 6 mph 1014.6mb 47f 62f
10:48 5 6 mph 1014.6mb 47f 58f
10:42 5
mph
1014.6mb 47f 52f
10:36 5
mph
1014.6mb 47f 52f
10:30 2 3 mph 1014.6mb 47f 52f
10:24 2 7 mph 1014.6mb 48f 55f
10:18 7 9 mph 1014.7mb 48f 54f
10:12 8
mph
1014.6mb 49f 53f
10:06 2 3 mph 1014.6mb 49f 52f
10:00 1 3 mph 1014.6mb 50f 53f
9:54 2 5 mph 1014.6mb 51f 53f
9:48 5 6 mph 1014.6mb 51f 52f
9:42 5
mph
1014.6mb 53f 52f
9:36 3
mph
1014.7mb 54f 52f
9:30 1
mph
1014.5mb 54f 52f
9:24 2
mph
1014.3mb 54f 52f
9:18 2
mph
1014.4mb 54f 52f
9:12 1
mph
1014.4mb 54f 53f
9:06  -  1 mph 1014.4mb 55f 52f
9:00  -  1 mph 1014.3mb 55f 53f
8:48  -  1 mph 1014.2mb 55f 53f
8:42  -  1 mph 1014.1mb 55f 53f
8:36 1 3 mph 1014mb 55f 54f
8:30 3 5 mph 1013.8mb 54f 54f
8:24 3 5 mph 1013.7mb 54f 53f
8:18 2
mph
1013.6mb 54f 53f
8:12 1 2 mph 1013.6mb 53f 53f
8:06 2
mph
1013.5mb 53f 53f
8:00 2 3 mph 1013.4mb 53f 54f
7:48 3
mph
1013.2mb 52f 54f
7:42 1 2 mph 1013.2mb 52f 54f
7:36 2
mph
1013.2mb 52f 54f
7:30 2 3 mph 1013.2mb 52f 54f
7:24 3
mph
1013.1mb 51f 54f
7:18 1 2 mph 1013mb 51f 55f
7:12 2
mph
1012.9mb 51f 55f
7:06 2
mph
1012.9mb 51f 54f
7:00 1 3 mph 1012.8mb 51f 55f
6:54 3 5 mph 1012.6mb 51f 55f
6:48 5 6 mph 1012.6mb 51f 55f
6:42 3 6 mph 1012.6mb 51f 56f
6:36 3 5 mph 1012.7mb 51f 55f
6:30 3 6 mph 1012.7mb 51f 55f
6:24 6 7 mph 1012.8mb 51f 55f
6:18 6 8 mph 1012.9mb 51f 55f
6:12 6 11 mph 1012.9mb 51f 56f
6:06 10 13 mph 1012.8mb 51f 56f
6:00 9 13 mph 1012.6mb 50f 57f
5:48 8 11 mph 1012.6mb 49f 57f
5:42 10 11 mph 1012.5mb 49f 57f
5:36 7 9 mph 1012.5mb 49f 56f
5:30 8 10 mph 1012.6mb 49f 56f
5:24 7 9 mph 1012.7mb 48f 56f
5:18 8 10 mph 1012.6mb 48f 56f
5:12 9 13 mph 1012.5mb 48f 55f
5:06 10 13 mph 1012.4mb 48f 55f
5:00 11 13 mph 1012.6mb 48f 55f
4:54 7 8 mph 1012.7mb 48f 55f
4:48 5 11 mph 1012.8mb 48f 55f
4:42 10 14 mph 1012.9mb 48f 55f
4:36 6 7 mph 1012.9mb 50f 55f
4:30 6 8 mph 1012.8mb 50f 55f
4:24 5 7 mph 1012.9mb 50f 55f
4:18 6 8 mph 1012.8mb 50f 53f
4:12 6 7 mph 1012.8mb 50f 53f
4:06 3 5 mph 1012.9mb 49f 54f
4:00 3 5 mph 1012.8mb 49f 55f
3:54 2 5 mph 1012.8mb 49f 55f
3:48 2 6 mph 1012.6mb 49f 53f
3:42 6 7 mph 1012.2mb 49f 52f
3:36 5 7 mph 1012.5mb 49f 52f
3:30 6 7 mph 1012.6mb 49f 52f
3:24 6 7 mph 1012.9mb 48f 52f
3:18 5 7 mph 1013.1mb 48f 54f
3:12 3 6 mph 1013.3mb 48f 54f
3:06 3 5 mph 1013.6mb 48f 55f
3:00 2 3 mph 1013.7mb 48f 55f
2:54 3 5 mph 1013.6mb 47f 55f
2:48 2 3 mph 1013.7mb 47f 53f
2:42 2 3 mph 1013.6mb 47f 55f
2:36  -  3 mph 1013.8mb 47f 54f
2:30 1 3 mph 1014mb 47f 55f
2:24 3 5 mph 1014.1mb 47f 52f
2:18 3 7 mph 1014.1mb 46f 52f
2:12 6 7 mph 1014mb 46f 52f
2:06 6 8 mph 1013.9mb 46f 52f
2:00 6 7 mph 1013.9mb 46f 52f
1:54 6 8 mph 1013.9mb 46f 52f
1:48 7 8 mph 1013.9mb 47f 52f
1:42 6 8 mph 1014mb 46f 52f
1:36 6 8 mph 1013.9mb 46f 52f
1:30 7 8 mph 1013.9mb 46f 52f
1:24 6 7 mph 1014mb 46f 52f
1:18 5 8 mph 1014mb 46f 51f
1:12 6 7 mph 1014mb 46f 51f
1:06 6 9 mph 1014.1mb 46f 50f
1:00 7 9 mph 1014.2mb 46f 51f
12:54 7 9 mph 1014mb 46f 51f
12:48 7 8 mph 1014.1mb 46f 51f
12:42 5 6 mph 1014.2mb 46f 51f
12:36 3
mph
1014.3mb 46f 51f
12:30 2 5 mph 1014.4mb 46f 50f
12:24 3 5 mph 1014.5mb 46f 50f
12:18 2 3 mph 1014.3mb 46f 49f
12:12 3 5 mph 1014.3mb 46f 49f
12:06 2 5 mph 1014.3mb 46f 49f
12:00 3 5 mph 1014.2mb 46f 49f
11:54 2 3 mph 1014.3mb 46f 49f
11:48 2 5 mph 1014.4mb 46f 51f
11:42 3
mph
1014.4mb 46f 50f
11:36 2 3 mph 1014.5mb 46f 52f
11:30 3 5 mph 1014.6mb 46f 51f
11:24 3 5 mph 1014.7mb 46f 51f
11:18 5 6 mph 1014.7mb 46f 51f
11:12 3
mph
1014.5mb 46f 50f
11:06 2 5 mph 1014.4mb 46f 49f
11:00 5
mph
1014.3mb 46f 50f
10:54 6 7 mph 1014.3mb 46f 49f
10:48 6 7 mph 1014.1mb 46f 50f
10:42 5 6 mph 1014mb 46f 51f
10:36 3
mph
1014.1mb 46f 50f
10:30 3
mph
1014.2mb 46f 49f
10:24 2
mph
1014.6mb 46f 49f
10:18 2 5 mph 1014.6mb 46f 49f
10:12 3 5 mph 1014.7mb 46f 49f
10:06  -  3 mph 1014.6mb 46f 49f
10:00  -  2 mph 1014.6mb 46f 49f
9:54 1 2 mph 1014.7mb 47f 49f
9:48 3
mph
1014.3mb 47f 49f
9:42 2 5 mph 1014.3mb 47f 49f
9:36 3 5 mph 1014.5mb 47f 49f
9:30 2 5 mph 1014.5mb 47f 49f
9:24 5
mph
1014.4mb 47f 49f
9:18 3 6 mph 1014.4mb 47f 50f
9:12 5 6 mph 1014.7mb 47f 50f
9:06 3 6 mph 1014.6mb 47f 50f
9:00 3 6 mph 1014.7mb 47f 50f
8:54 6 7 mph 1014.9mb 47f 49f
8:48 6 7 mph 1014.9mb 47f 49f
8:42 5
mph
1014.8mb 47f 50f
8:36 2 5 mph 1014.5mb 47f 49f
8:30 3 5 mph 1014.6mb 47f 49f
8:24 2 3 mph 1014.5mb 47f 49f
8:18 2 6 mph 1014.4mb 47f 49f
8:12 6
mph
1014.7mb 47f 49f
8:06 5 6 mph 1014.7mb 47f 49f
8:00 5 6 mph 1014.8mb 47f 49f
7:30 3 6 mph 1014.6mb 47f 49f
7:24 5
mph
1014.5mb 47f 49f
7:18 3 5 mph 1014.6mb 47f 49f
7:12 2
mph
1014.6mb 47f 49f
7:06 3 5 mph 1014.4mb 47f 49f
7:00  -  1 mph 1014.3mb 47f 49f
6:54  -  mph 1014.4mb 47f 49f
6:48  -  mph 1014.3mb 47f 49f
6:42  -  1 mph 1014.5mb 47f 48f
6:36  -  1 mph 1014.5mb 47f 48f
6:30  -  2 mph 1014.3mb 47f 48f
6:24 1 2 mph 1014.2mb 47f 48f
6:18 3
mph
1014.4mb 47f 48f
6:12  -  2 mph 1014.4mb 47f 48f
6:06 2 5 mph 1014mb 47f 48f
6:00 3
mph
1014mb 47f 48f
5:54 2
mph
1014mb 47f 48f
5:48  -  2 mph 1014mb 47f 48f
5:42 2 3 mph 1013.9mb 47f 48f
5:36 2
mph
1013.8mb 47f 47f
5:30 1 2 mph 1013.6mb 47f 47f
5:24 2 3 mph 1013.9mb 47f 47f
5:18 2 5 mph 1014mb 47f 47f
5:12 2 3 mph 1014mb 47f 47f
5:06 2 3 mph 1014mb 47f 47f
5:00 2 3 mph 1014mb 47f 47f
4:54 2 5 mph 1013.9mb 47f 47f
4:48 5 6 mph 1013.7mb 47f 47f
4:42 5 6 mph 1013.6mb 46f 47f
4:36 2
mph
1013.9mb 46f 47f
4:30 2 3 mph 1014.1mb 46f 47f
4:24 2
mph
1014mb 46f 47f
4:18 2 3 mph 1013.9mb 46f 47f
4:12 3
mph
1014mb 46f 47f
4:06 2
mph
1014mb 46f 47f
4:00 2
mph
1013.9mb 46f 47f
3:54 1 2 mph 1014mb 46f 47f
3:48 1 2 mph 1014mb 46f 47f
3:42 1 2 mph 1014mb 46f 47f
3:36 1 2 mph 1013.9mb 46f 47f
3:30  -  1 mph 1013.8mb 46f 47f
3:24 1 2 mph 1013.8mb 46f 47f
3:18 1 2 mph 1013.7mb 46f 47f
3:12  -  1 mph 1013.7mb 46f 47f
3:06  -  1 mph 1013.8mb 46f 47f
3:00 1 2 mph 1013.7mb 46f 47f
2:54 1 2 mph 1013.6mb 46f 47f
2:48 2
mph
1013.7mb 46f 47f
2:42 1 2 mph 1013.7mb 46f 47f
2:36 1 2 mph 1013.8mb 46f 47f
2:30 1 2 mph 1013.7mb 46f 46f
2:24 2
mph
1013.7mb 46f 46f
2:18 1 2 mph 1013.8mb 46f 46f
2:12  -  1 mph 1013.8mb 46f 47f
2:06  -  2 mph 1013.9mb 46f 47f
2:00 2
mph
1013.8mb 46f 47f
1:54 2
mph
1013.8mb 46f 46f
1:48 1 2 mph 1014mb 46f 46f
1:42 2
mph
1013.9mb 46f 46f
1:36  -  1 mph 1014mb 46f 46f
1:30  -  1 mph 1014mb 46f 46f
1:24  -  1 mph 1014.1mb 46f 46f
1:18  -  1 mph 1014mb 46f 46f
1:12 1
mph
1014.1mb 46f 46f
1:06  -  1 mph 1014.1mb 46f 46f
1:00  -  1 mph 1014.2mb 46f 46f
12:54 1 2 mph 1014.1mb 46f 46f
12:48 2
mph
1014.1mb 46f 46f
12:42 2
mph
1014.2mb 46f 46f
12:36 2
mph
1014.3mb 46f 46f
12:30 2 3 mph 1014.3mb 46f 46f
12:24 3 5 mph 1014mb 46f 46f
12:18 5 6 mph 1013.8mb 46f 46f
12:12 2 3 mph 1014.1mb 46f 46f
12:06 3
mph
1014mb 46f 46f
12:00 2
mph
1014.1mb 46f 46f
jeu. 04/27 11:54  -  1 mph 1014.3mb 46f 46f
11:48 1 2 mph 1014.4mb 46f 46f
11:42  -  1 mph 1014.4mb 46f 46f
11:36  -  2 mph 1014.4mb 46f 46f
11:30 1 2 mph 1014.5mb 46f 46f
11:24 1 3 mph 1014.5mb 46f 46f
11:18 1 2 mph 1014.4mb 46f 46f
11:12  -  2 mph 1014.3mb 46f 46f
11:06  -  2 mph 1014.3mb 46f 46f
11:00 2
mph
1014.3mb 46f 46f
10:54 2 3 mph 1014.2mb 46f 46f
10:48 2 3 mph 1014.2mb 46f 47f
10:42 2 3 mph 1014.4mb 46f 47f
10:36 2
mph
1014.5mb 46f 47f
10:30 1 2 mph 1014.6mb 46f 47f
10:24 2 3 mph 1014.7mb 46f 47f
10:18  -  3 mph 1014.6mb 46f 47f
10:12 2
mph
1014.5mb 46f 47f
10:06 1 2 mph 1014.5mb 46f 47f
10:00 2
mph
1014.6mb 46f 47f
9:54 2 5 mph 1014.6mb 46f 47f
9:48 3 6 mph 1014.6mb 46f 47f
9:42 6 7 mph 1014.6mb 46f 47f
9:36 6 7 mph 1014.5mb 46f 47f
9:30 5 6 mph 1014.3mb 46f 47f
9:24 3 5 mph 1014.4mb 46f 47f
9:18 3 6 mph 1014.5mb 46f 47f
9:12 5 6 mph 1014.4mb 47f 47f
9:06 5
mph
1014.6mb 47f 47f
9:00 3 5 mph - 48f 47f
8:48 2 3 mph 1014.4mb 51f 47f
8:42 2 3 mph 1014.4mb 51f 48f
8:36 2 3 mph 1014.2mb 51f 48f
8:30 3
mph
1014.1mb 51f 48f
8:24 2 3 mph 1014mb 51f 48f
8:18 2 3 mph 1013.9mb 51f 48f
8:12 2 3 mph 1013.7mb 51f 48f
8:06 2 3 mph 1013.7mb 52f 48f
8:00 3 5 mph 1013.6mb 51f 48f
7:48 5
mph
1013.5mb 51f 48f
7:42 3 5 mph 1013.5mb 51f 48f
7:36 2 3 mph 1013.6mb 51f 48f
7:30 2 3 mph 1013.7mb 51f 48f
7:24 3
mph
1013.5mb 50f 48f
7:18 2
mph
1013.6mb 50f 48f
7:12 2
mph
1013.5mb 50f 48f
7:06 2
mph
1013.6mb 50f 48f
7:00 1 2 mph 1013.7mb 50f 48f
6:48  -  2 mph 1013.8mb 50f 48f
6:42 2 3 mph 1013.8mb 50f 48f
6:36 3 6 mph 1013.7mb 49f 48f
6:30 5 6 mph 1013.6mb 49f 48f
6:24 3 5 mph 1013.7mb 49f 48f
6:18 2 5 mph 1013.8mb 49f 48f
6:12 3 5 mph 1013.7mb 49f 48f
6:06 2 6 mph 1013.7mb 49f 48f
5:48 5 7 mph 1013.6mb 48f 48f
5:42 7 10 mph 1013.4mb 48f 48f
5:36 7 9 mph 1013.4mb 48f 49f
5:30 8 11 mph 1013.4mb 48f 49f
5:24 6 10 mph 1013.6mb 48f 49f
5:18 6 8 mph 1013.5mb 48f 49f
5:12 7 9 mph 1013.4mb 48f 48f
5:06 7 9 mph 1013.3mb 48f 49f
5:00 8 10 mph 1013.4mb 47f 48f
4:54 9 14 mph 1013.4mb 47f 48f
4:48 10 14 mph 1013.4mb 47f 49f
4:42 10 13 mph 1013.4mb 47f 49f
4:36 9 13 mph 1013.5mb 47f 49f
4:30 10 13 mph 1013.5mb 47f 49f
4:24 9 13 mph 1013.5mb 47f 49f
4:18 11 14 mph 1013.4mb 47f 49f
4:12 11 14 mph 1013.4mb 47f 49f
4:06 10 13 mph 1013.4mb 47f 49f
4:00 9 13 mph 1013.4mb 47f 49f
3:54 8 11 mph 1013.5mb 48f 48f
3:48 10 11 mph 1013.5mb 49f 49f
3:42 8 10 mph 1013.6mb 49f 48f
3:36 8 10 mph 1013.6mb 48f 48f
3:30 7 11 mph 1013.6mb 48f 48f
3:24 8 11 mph 1013.7mb 48f 48f
3:18 9 11 mph 1013.7mb 48f 48f
3:12 9 11 mph 1013.7mb 48f 48f
3:06 8 11 mph 1013.7mb 48f 48f
3:00 8 11 mph 1013.7mb 48f 48f
2:54 7 11 mph 1013.7mb 48f 48f
2:48 8 11 mph 1013.7mb 47f 48f
2:42 9 11 mph 1013.7mb 47f 48f
2:36 8 11 mph 1013.7mb 47f 48f
2:30 8 11 mph 1013.6mb 47f 48f
2:24 9 11 mph 1013.6mb 47f 48f
2:18 9 10 mph 1013.6mb 47f 48f
2:12 8 9 mph 1013.6mb 47f 48f
2:06 7 8 mph 1013.6mb 47f 49f
2:00 6 7 mph 1013.6mb 46f 49f
1:54 5 9 mph 1013.6mb 46f 49f
1:48 8 10 mph 1013.6mb 46f 48f
1:42 9 10 mph 1013.5mb 46f 48f
1:36 8 9 mph 1013.5mb 46f 49f
1:30 6 7 mph 1013.6mb 46f 49f
1:24 5 7 mph 1013.5mb 46f 49f
1:18 7 8 mph 1013.5mb 46f 49f
1:12 7 8 mph 1013.5mb 46f 49f
1:06 7 8 mph 1013.5mb 46f 48f
1:00 7 9 mph 1013.7mb 46f 48f
12:48 9 10 mph 1013.7mb 46f 48f
12:42 8 11 mph 1013.8mb 46f 48f
12:36 9 11 mph 1013.9mb 46f 49f
12:30 9 11 mph 1014mb 46f 50f
12:24 7 10 mph 1013.9mb 46f 51f
12:18 9 11 mph 1013.8mb 46f 50f
12:12 8 10 mph 1013.8mb 46f 50f
12:06 6 7 mph 1013.9mb 46f 54f
12:00 3 5 mph 1013.9mb 46f 55f
11:54 3 6 mph 1013.9mb 46f 54f
11:48 6 7 mph 1013.9mb 46f 54f
11:42 6 7 mph 1014mb 46f 54f
11:36 6 7 mph 1014mb 46f 53f
11:30 6 8 mph 1014.1mb 46f 53f
11:24 7 8 mph 1013.9mb 46f 53f
11:18 7 9 mph 1013.9mb 46f 53f
11:12 7 8 mph 1013.9mb 46f 53f
11:06 7 9 mph 1013.9mb 46f 52f
11:00 8
mph
1013.8mb 46f 53f
10:54 5 7 mph 1013.8mb 46f 52f
10:48 3 5 mph 1013.8mb 46f 51f
10:42 5 6 mph 1013.8mb 46f 50f
10:36 6 7 mph 1013.8mb 45f 49f
10:30 6 7 mph 1013.8mb 45f 48f
10:24 5 6 mph 1013.8mb 46f 48f
10:18 6 7 mph 1013.8mb 46f 48f
10:12 6 7 mph 1013.8mb 46f 48f
10:06 5 6 mph 1013.8mb 46f 49f
10:00 2
mph
1013.8mb 46f 51f
9:54  -  5 mph 1013.8mb 46f 52f
9:48 2 3 mph 1013.8mb 46f 52f
9:42 2 5 mph 1013.8mb 46f 52f
9:36 5 6 mph 1013.8mb 46f 52f
9:30 6 8 mph 1013.7mb 46f 52f
9:24 2 5 mph 1013.6mb 46f 51f
9:18 2 3 mph 1013.6mb 46f 50f
9:12 3 5 mph 1013.6mb 46f 50f
9:06 2 3 mph 1013.5mb 46f 50f
9:00 3
mph
1013.4mb 46f 50f
8:54 3 6 mph 1013.3mb 46f 50f
8:48 5 7 mph 1013.3mb 47f 50f
8:42 5 8 mph 1013.2mb 47f 50f
8:36 6 8 mph 1013.2mb 47f 50f
8:30 6 10 mph 1013.1mb 47f 50f
8:24 9 11 mph 1013.1mb 47f 50f
8:18 9 11 mph 1013.3mb 47f 50f
8:12 7 9 mph 1013.3mb 47f 50f
8:06 8 10 mph 1013.4mb 47f 50f
8:00 7 8 mph 1013.4mb 47f 50f
7:48 8 9 mph 1013.4mb 47f 49f
7:42 8 11 mph 1013.3mb 47f 49f
7:36 7 10 mph 1013.3mb 47f 49f
7:30 8 11 mph 1013.3mb 47f 49f
7:24 6 7 mph 1013.3mb 47f 49f
7:18 5 6 mph 1013.3mb 47f 49f
7:12 5 7 mph 1013.2mb 47f 49f
7:06 5 8 mph 1013.2mb 47f 49f
7:00 6 8 mph 1013mb 47f 49f
6:54 5 7 mph 1013mb 47f 49f
6:48 6
mph
1012.8mb 47f 49f
6:42 3 5 mph 1012.7mb 47f 48f
6:36 5 7 mph 1012.6mb 47f 48f
6:30 5 8 mph 1012.7mb 47f 48f
6:24 6 9 mph 1012.6mb 47f 48f
6:18 7 9 mph 1012.5mb 47f 48f
6:12 6 8 mph 1012.5mb 47f 48f
6:06 7 9 mph 1012.5mb 47f 48f
6:00 6 8 mph 1012.5mb 47f 48f
5:54 7 8 mph 1012.5mb 47f 48f
5:48 7 8 mph 1012.4mb 47f 47f
5:42 6 7 mph 1012.3mb 47f 47f
5:36 5
mph
1012.2mb 47f 47f
5:30 5 6 mph 1012.1mb 47f 47f
5:24 6 7 mph 1012mb 47f 48f
5:18 5
mph
1012mb 47f 48f
5:12 3
mph
1011.9mb 47f 48f
5:06 2 3 mph 1011.8mb 47f 48f
5:00 5
mph
1011.8mb 47f 48f
4:54 3 5 mph 1011.9mb 47f 48f
4:48 5
mph
1012mb 47f 48f
4:42 3 5 mph 1012mb 47f 48f
4:36 3 5 mph 1011.9mb 47f 49f
4:30 3 6 mph 1011.9mb 47f 49f
4:24 5 6 mph 1011.8mb 46f 49f
4:18 5 6 mph 1011.7mb 46f 49f
4:12 3 5 mph 1011.7mb 46f 49f
4:06 3 6 mph 1011.7mb 46f 49f
4:00 3
mph
1011.6mb 46f 48f
3:54 3
mph
1011.6mb 46f 48f
3:48 3 5 mph 1011.6mb 46f 48f
3:42 5 6 mph 1011.6mb 46f 48f
3:36 6
mph
1011.5mb 46f 48f
3:30 6
mph
1011.6mb 46f 47f
3:24 2 5 mph 1011.7mb 47f 48f
3:18 3 5 mph 1011.8mb 47f 47f
3:12 2 3 mph 1011.7mb 46f 48f
3:06 3 5 mph 1011.6mb 46f 49f
3:00 3
mph
1011.5mb 46f 49f
2:54 2 3 mph 1011.6mb 46f 49f
2:48 1 3 mph 1011.5mb 46f 50f
2:42 3 6 mph 1011.3mb 46f 51f
2:36 3 6 mph 1011.2mb 46f 50f
2:30 6 9 mph 1011.2mb 46f 51f
2:24 8 10 mph 1011mb 46f 51f
2:18 7 9 mph 1011.1mb 46f 51f
2:12 7 8 mph 1011.1mb 46f 51f
2:06 7 9 mph 1011.2mb 46f 51f
2:00 7 8 mph 1011.2mb 46f 51f
1:54 6 7 mph 1011.4mb 46f 51f
1:48 6 7 mph 1011.5mb 46f 51f
1:42 6 8 mph 1011.5mb 46f 51f
1:36 6 8 mph 1011.6mb 46f 51f
1:30 6 7 mph 1011.6mb 46f 51f
1:24 6 7 mph 1011.7mb 46f 51f
1:18 6 8 mph 1011.7mb 46f 51f
1:12 7 9 mph 1011.7mb 46f 51f
1:06 8 10 mph 1011.7mb 46f 51f
1:00 8 10 mph 1011.6mb 46f 51f
12:54 8 9 mph 1011.7mb 46f 51f
12:48 7 8 mph 1011.7mb 46f 51f
12:42 5 6 mph 1011.9mb 46f 51f
12:36 5 6 mph 1012mb 46f 51f
12:30 5 6 mph 1012mb 46f 51f
12:24 5 6 mph 1012mb 46f 51f
12:18 6 7 mph 1012mb 46f 51f
12:12 6
mph
1012mb 46f 51f
12:06 5 6 mph 1012.1mb 46f 51f
12:00 5 6 mph 1012.1mb 46f 51f
mer. 04/26 11:54 5 6 mph 1012mb 46f 51f
11:48 5 6 mph 1012mb 46f 51f
11:42 5 6 mph 1012mb 46f 51f
11:36 5 7 mph 1011.9mb 46f 51f
11:30 6 7 mph 1011.8mb 46f 51f
11:24 6 7 mph 1011.8mb 46f 51f
11:18 6
mph
1011.8mb 46f 51f
11:12 5 6 mph 1011.8mb 46f 51f
11:06 3 5 mph 1011.9mb 46f 51f
11:00 3 7 mph 1011.8mb 46f 51f
10:54 5 6 mph 1011.6mb 46f 51f
10:48 6 8 mph 1011.6mb 46f 51f
10:42 6 7 mph 1011.6mb 46f 51f
10:36 7 9 mph 1011.7mb 46f 51f
10:30 7 8 mph 1011.7mb 46f 51f
10:24 7 8 mph 1011.7mb 46f 51f
10:18 6 7 mph 1011.7mb 46f 51f
10:12 5 7 mph 1011.8mb 46f 51f
10:06 6 7 mph 1011.8mb 46f 51f
10:00 6 8 mph 1011.8mb 46f 51f
9:48 8 9 mph 1011.7mb 46f 51f
9:42 7 8 mph 1011.8mb 46f 51f
9:36 7 9 mph 1011.8mb 46f 51f
9:30 7 8 mph 1011.8mb 46f 51f
9:24 6 8 mph 1011.8mb 46f 51f
9:18 6 8 mph 1011.8mb 46f 51f
9:12 7 9 mph 1011.7mb 46f 51f
9:06 8 11 mph 1011.7mb 46f 51f
9:00 8 10 mph 1011.8mb 46f 51f
8:48 7 10 mph 1011.9mb 46f 51f
8:42 7 9 mph 1011.9mb 46f 51f
8:36 7 9 mph 1011.8mb 46f 51f
8:30 7 8 mph 1011.8mb 46f 52f
8:24 6 9 mph 1011.8mb 46f 52f
8:18 7 9 mph 1011.7mb 47f 52f
8:12 7 8 mph 1011.8mb 47f 52f
8:06 5 9 mph 1011.9mb 47f 52f
8:00 6 8 mph 1011.9mb 48f 52f
7:48 7 9 mph 1012mb 48f 52f
7:42 6 8 mph 1012mb 48f 52f
7:36 6 8 mph 1012.1mb 48f 52f
7:30 6 8 mph 1012.1mb 48f 52f
7:24 6 7 mph 1012.1mb 48f 53f
7:18 6 8 mph 1012.1mb 48f 53f
7:12 6 9 mph 1012mb 48f 53f
7:06 7 8 mph 1011.9mb 48f 53f
7:00 6 8 mph 1012mb 48f 53f
6:54 6 8 mph 1012mb 48f 53f
6:48 7 8 mph 1012mb 48f 53f
6:42 6 8 mph 1012mb 48f 53f
6:36 6 7 mph 1012.1mb 48f 53f
6:30 6 8 mph 1012mb 48f 53f
6:24 7 8 mph 1012mb 48f 53f
6:18 7 8 mph 1012mb 48f 52f
6:12 7 9 mph 1011.9mb 48f 52f
6:06 7 8 mph 1011.9mb 48f 53f
6:00 5 7 mph 1011.8mb 48f 53f
5:48 5 6 mph 1011.9mb 48f 53f
5:42 6 7 mph 1011.9mb 48f 53f
5:36 7 8 mph 1011.9mb 48f 53f
5:30 6 7 mph 1011.9mb 48f 53f
5:24 6 7 mph 1011.9mb 47f 53f
5:18 6 7 mph 1011.9mb 47f 53f
5:12 5 7 mph 1011.9mb 47f 53f
5:06 6 7 mph 1011.8mb 47f 53f
5:00 7
mph
1011.8mb 47f 53f
4:54 6 7 mph 1011.8mb 47f 53f
4:48 5 6 mph 1011.8mb 47f 53f
4:42 6 7 mph 1011.8mb 47f 53f
4:36 6 8 mph 1011.8mb 47f 53f
4:30 6 8 mph 1011.7mb 47f 53f
4:24 5 7 mph 1011.7mb 47f 53f
4:18 5 6 mph 1011.8mb 47f 53f
4:12 5 7 mph 1011.9mb 47f 53f
4:06 7 8 mph 1012mb 47f 53f
4:00 6 7 mph 1012mb 47f 53f
3:54 5
mph
1012.2mb 47f 53f
3:48 3 6 mph 1012.2mb 47f 53f
3:42 5 7 mph 1012.2mb 47f 53f
3:36 6
mph
1012.3mb 47f 53f
3:30 5 6 mph 1012.4mb 47f 53f
3:24 5 6 mph 1012.5mb 47f 53f
3:18 5 6 mph 1012.6mb 47f 53f
3:12 3 5 mph 1012.7mb 47f 53f
3:06 5 6 mph 1012.7mb 47f 53f
3:00 3 5 mph 1012.8mb 47f 53f
2:54 5 6 mph 1012.8mb 47f 53f